sensor_id;sensor_type;location;lat;lon;timestamp;P1;durP1;ratioP1;P2;durP2;ratioP2
25535;SDS011;13431;51.352;6.412;2023-02-10T00:01:24;43.22;;;29.15;;
25535;SDS011;13431;51.352;6.412;2023-02-10T00:03:54;40.33;;;30.38;;
25535;SDS011;13431;51.352;6.412;2023-02-10T00:06:23;40.58;;;30.10;;
25535;SDS011;13431;51.352;6.412;2023-02-10T00:08:53;39.90;;;28.20;;
25535;SDS011;13431;51.352;6.412;2023-02-10T00:11:22;39.50;;;30.98;;
25535;SDS011;13431;51.352;6.412;2023-02-10T00:14:10;39.35;;;30.10;;
25535;SDS011;13431;51.352;6.412;2023-02-10T00:16:40;41.35;;;29.63;;
25535;SDS011;13431;51.352;6.412;2023-02-10T00:19:07;35.65;;;27.30;;
25535;SDS011;13431;51.352;6.412;2023-02-10T00:21:35;38.97;;;29.85;;
25535;SDS011;13431;51.352;6.412;2023-02-10T00:24:02;41.03;;;30.38;;
25535;SDS011;13431;51.352;6.412;2023-02-10T00:26:30;38.83;;;29.90;;
25535;SDS011;13431;51.352;6.412;2023-02-10T00:28:57;38.22;;;28.98;;
25535;SDS011;13431;51.352;6.412;2023-02-10T00:31:25;42.85;;;31.67;;
25535;SDS011;13431;51.352;6.412;2023-02-10T00:33:52;45.78;;;29.88;;
25535;SDS011;13431;51.352;6.412;2023-02-10T00:36:19;42.38;;;30.52;;
25535;SDS011;13431;51.352;6.412;2023-02-10T00:38:50;39.72;;;30.63;;
25535;SDS011;13431;51.352;6.412;2023-02-10T00:41:18;38.67;;;28.83;;
25535;SDS011;13431;51.352;6.412;2023-02-10T00:43:48;44.22;;;31.02;;
25535;SDS011;13431;51.352;6.412;2023-02-10T00:46:16;42.72;;;31.02;;
25535;SDS011;13431;51.352;6.412;2023-02-10T00:51:34;36.42;;;28.58;;
25535;SDS011;13431;51.352;6.412;2023-02-10T00:54:01;43.45;;;31.23;;
25535;SDS011;13431;51.352;6.412;2023-02-10T00:56:29;43.67;;;30.90;;
25535;SDS011;13431;51.352;6.412;2023-02-10T00:58:56;35.13;;;28.58;;
25535;SDS011;13431;51.352;6.412;2023-02-10T01:01:24;42.83;;;29.98;;
25535;SDS011;13431;51.352;6.412;2023-02-10T01:03:51;44.85;;;31.27;;
25535;SDS011;13431;51.352;6.412;2023-02-10T01:06:18;40.72;;;31.00;;
25535;SDS011;13431;51.352;6.412;2023-02-10T01:08:46;42.70;;;31.55;;
25535;SDS011;13431;51.352;6.412;2023-02-10T01:11:14;41.97;;;30.45;;
25535;SDS011;13431;51.352;6.412;2023-02-10T01:13:45;43.90;;;31.30;;
25535;SDS011;13431;51.352;6.412;2023-02-10T01:16:13;38.88;;;29.58;;
25535;SDS011;13431;51.352;6.412;2023-02-10T01:18:43;40.67;;;29.73;;
25535;SDS011;13431;51.352;6.412;2023-02-10T01:21:15;40.75;;;30.73;;
25535;SDS011;13431;51.352;6.412;2023-02-10T01:23:45;43.08;;;32.47;;
25535;SDS011;13431;51.352;6.412;2023-02-10T01:26:13;40.90;;;31.77;;
25535;SDS011;13431;51.352;6.412;2023-02-10T01:28:41;43.45;;;32.25;;
25535;SDS011;13431;51.352;6.412;2023-02-10T01:31:11;43.05;;;31.08;;
25535;SDS011;13431;51.352;6.412;2023-02-10T01:33:44;45.05;;;33.00;;
25535;SDS011;13431;51.352;6.412;2023-02-10T01:36:13;40.65;;;30.98;;
25535;SDS011;13431;51.352;6.412;2023-02-10T01:38:42;39.95;;;31.67;;
25535;SDS011;13431;51.352;6.412;2023-02-10T01:41:12;43.70;;;31.35;;
25535;SDS011;13431;51.352;6.412;2023-02-10T01:46:40;42.30;;;32.33;;
25535;SDS011;13431;51.352;6.412;2023-02-10T01:49:09;46.08;;;31.90;;
25535;SDS011;13431;51.352;6.412;2023-02-10T01:51:41;43.20;;;31.92;;
25535;SDS011;13431;51.352;6.412;2023-02-10T01:54:14;43.30;;;32.30;;
25535;SDS011;13431;51.352;6.412;2023-02-10T01:56:45;43.47;;;32.22;;
25535;SDS011;13431;51.352;6.412;2023-02-10T01:59:13;41.67;;;31.02;;
25535;SDS011;13431;51.352;6.412;2023-02-10T02:01:41;53.13;;;33.25;;
25535;SDS011;13431;51.352;6.412;2023-02-10T02:04:09;40.03;;;30.88;;
25535;SDS011;13431;51.352;6.412;2023-02-10T02:06:37;41.78;;;30.95;;
25535;SDS011;13431;51.352;6.412;2023-02-10T02:09:05;43.58;;;32.65;;
25535;SDS011;13431;51.352;6.412;2023-02-10T02:14:27;42.63;;;31.08;;
25535;SDS011;13431;51.352;6.412;2023-02-10T02:17:02;39.70;;;30.60;;
25535;SDS011;13431;51.352;6.412;2023-02-10T02:25:47;43.10;;;36.42;;
25535;SDS011;13431;51.352;6.412;2023-02-10T02:36:47;42.83;;;31.85;;
25535;SDS011;13431;51.352;6.412;2023-02-10T02:39:20;43.58;;;32.42;;
25535;SDS011;13431;51.352;6.412;2023-02-10T02:41:59;42.40;;;31.15;;
25535;SDS011;13431;51.352;6.412;2023-02-10T02:44:37;38.67;;;30.10;;
25535;SDS011;13431;51.352;6.412;2023-02-10T02:47:11;44.13;;;32.80;;
25535;SDS011;13431;51.352;6.412;2023-02-10T03:01:16;46.28;;;32.15;;
25535;SDS011;13431;51.352;6.412;2023-02-10T03:03:56;42.60;;;30.80;;
25535;SDS011;13431;51.352;6.412;2023-02-10T03:06:25;47.17;;;32.88;;
25535;SDS011;13431;51.352;6.412;2023-02-10T03:08:52;45.35;;;31.65;;
25535;SDS011;13431;51.352;6.412;2023-02-10T03:11:20;41.88;;;32.03;;
25535;SDS011;13431;51.352;6.412;2023-02-10T03:13:48;46.20;;;32.50;;
25535;SDS011;13431;51.352;6.412;2023-02-10T03:16:15;43.83;;;31.95;;
25535;SDS011;13431;51.352;6.412;2023-02-10T03:18:42;39.75;;;30.75;;
25535;SDS011;13431;51.352;6.412;2023-02-10T03:21:10;44.47;;;33.40;;
25535;SDS011;13431;51.352;6.412;2023-02-10T03:23:37;45.70;;;33.33;;
25535;SDS011;13431;51.352;6.412;2023-02-10T03:26:04;44.78;;;32.42;;
25535;SDS011;13431;51.352;6.412;2023-02-10T03:28:32;48.45;;;34.53;;
25535;SDS011;13431;51.352;6.412;2023-02-10T03:31:03;46.28;;;33.40;;
25535;SDS011;13431;51.352;6.412;2023-02-10T03:33:32;44.60;;;33.33;;
25535;SDS011;13431;51.352;6.412;2023-02-10T03:36:00;44.97;;;33.22;;
25535;SDS011;13431;51.352;6.412;2023-02-10T03:38:28;48.60;;;33.80;;
25535;SDS011;13431;51.352;6.412;2023-02-10T03:40:55;48.53;;;33.83;;
25535;SDS011;13431;51.352;6.412;2023-02-10T03:43:22;46.20;;;33.10;;
25535;SDS011;13431;51.352;6.412;2023-02-10T03:45:50;43.03;;;33.65;;
25535;SDS011;13431;51.352;6.412;2023-02-10T03:48:17;44.10;;;32.25;;
25535;SDS011;13431;51.352;6.412;2023-02-10T03:50:47;45.60;;;34.60;;
25535;SDS011;13431;51.352;6.412;2023-02-10T03:53:14;46.30;;;32.45;;
25535;SDS011;13431;51.352;6.412;2023-02-10T03:55:42;51.80;;;33.38;;
25535;SDS011;13431;51.352;6.412;2023-02-10T03:58:09;43.20;;;32.72;;
25535;SDS011;13431;51.352;6.412;2023-02-10T04:00:36;46.13;;;33.45;;
25535;SDS011;13431;51.352;6.412;2023-02-10T04:03:04;45.53;;;33.58;;
25535;SDS011;13431;51.352;6.412;2023-02-10T04:05:31;43.30;;;33.20;;
25535;SDS011;13431;51.352;6.412;2023-02-10T04:07:58;50.50;;;35.03;;
25535;SDS011;13431;51.352;6.412;2023-02-10T04:10:26;45.67;;;34.40;;
25535;SDS011;13431;51.352;6.412;2023-02-10T04:12:54;52.00;;;32.72;;
25535;SDS011;13431;51.352;6.412;2023-02-10T04:15:21;53.00;;;35.35;;
25535;SDS011;13431;51.352;6.412;2023-02-10T04:17:49;48.33;;;33.58;;
25535;SDS011;13431;51.352;6.412;2023-02-10T04:20:16;43.97;;;32.75;;
25535;SDS011;13431;51.352;6.412;2023-02-10T04:22:44;51.20;;;33.83;;
25535;SDS011;13431;51.352;6.412;2023-02-10T04:25:11;50.63;;;34.45;;
25535;SDS011;13431;51.352;6.412;2023-02-10T04:27:38;46.58;;;33.30;;
25535;SDS011;13431;51.352;6.412;2023-02-10T04:30:06;49.92;;;36.42;;
25535;SDS011;13431;51.352;6.412;2023-02-10T04:32:34;48.97;;;33.28;;
25535;SDS011;13431;51.352;6.412;2023-02-10T04:35:02;51.30;;;35.25;;
25535;SDS011;13431;51.352;6.412;2023-02-10T04:37:29;54.53;;;37.33;;
25535;SDS011;13431;51.352;6.412;2023-02-10T04:39:56;50.17;;;34.53;;
25535;SDS011;13431;51.352;6.412;2023-02-10T04:42:24;49.15;;;35.08;;
25535;SDS011;13431;51.352;6.412;2023-02-10T04:44:59;52.58;;;35.55;;
25535;SDS011;13431;51.352;6.412;2023-02-10T04:47:27;55.33;;;36.25;;
25535;SDS011;13431;51.352;6.412;2023-02-10T04:49:55;51.92;;;35.17;;
25535;SDS011;13431;51.352;6.412;2023-02-10T04:52:22;55.88;;;38.25;;
25535;SDS011;13431;51.352;6.412;2023-02-10T04:54:50;54.50;;;36.78;;
25535;SDS011;13431;51.352;6.412;2023-02-10T04:57:17;51.85;;;37.28;;
25535;SDS011;13431;51.352;6.412;2023-02-10T04:59:45;60.58;;;36.92;;
25535;SDS011;13431;51.352;6.412;2023-02-10T05:02:12;50.70;;;35.67;;
25535;SDS011;13431;51.352;6.412;2023-02-10T05:04:39;58.47;;;37.45;;
25535;SDS011;13431;51.352;6.412;2023-02-10T05:07:10;54.40;;;36.50;;
25535;SDS011;13431;51.352;6.412;2023-02-10T05:09:38;55.33;;;38.22;;
25535;SDS011;13431;51.352;6.412;2023-02-10T05:12:05;53.35;;;36.20;;
25535;SDS011;13431;51.352;6.412;2023-02-10T05:14:33;60.80;;;38.65;;
25535;SDS011;13431;51.352;6.412;2023-02-10T05:17:00;53.03;;;38.05;;
25535;SDS011;13431;51.352;6.412;2023-02-10T05:19:27;57.75;;;39.65;;
25535;SDS011;13431;51.352;6.412;2023-02-10T05:21:55;57.28;;;38.95;;
25535;SDS011;13431;51.352;6.412;2023-02-10T05:24:22;51.17;;;37.10;;
25535;SDS011;13431;51.352;6.412;2023-02-10T05:26:50;56.75;;;39.75;;
25535;SDS011;13431;51.352;6.412;2023-02-10T05:29:17;57.03;;;36.65;;
25535;SDS011;13431;51.352;6.412;2023-02-10T05:31:45;55.30;;;36.80;;
25535;SDS011;13431;51.352;6.412;2023-02-10T05:34:12;59.40;;;38.72;;
25535;SDS011;13431;51.352;6.412;2023-02-10T05:36:39;59.75;;;40.10;;
25535;SDS011;13431;51.352;6.412;2023-02-10T05:39:06;61.83;;;38.95;;
25535;SDS011;13431;51.352;6.412;2023-02-10T05:41:53;59.17;;;38.05;;
25535;SDS011;13431;51.352;6.412;2023-02-10T05:44:22;62.97;;;38.92;;
25535;SDS011;13431;51.352;6.412;2023-02-10T05:46:51;61.03;;;39.22;;
25535;SDS011;13431;51.352;6.412;2023-02-10T05:49:19;56.83;;;38.95;;
25535;SDS011;13431;51.352;6.412;2023-02-10T05:51:46;55.78;;;38.03;;
25535;SDS011;13431;51.352;6.412;2023-02-10T05:54:17;65.40;;;39.83;;
25535;SDS011;13431;51.352;6.412;2023-02-10T05:56:44;58.17;;;39.17;;
25535;SDS011;13431;51.352;6.412;2023-02-10T05:59:12;66.18;;;41.22;;
25535;SDS011;13431;51.352;6.412;2023-02-10T06:01:41;65.05;;;40.83;;
25535;SDS011;13431;51.352;6.412;2023-02-10T06:04:09;61.20;;;40.83;;
25535;SDS011;13431;51.352;6.412;2023-02-10T06:06:36;60.13;;;40.17;;
25535;SDS011;13431;51.352;6.412;2023-02-10T06:09:04;60.70;;;38.47;;
25535;SDS011;13431;51.352;6.412;2023-02-10T06:11:32;60.78;;;40.35;;
25535;SDS011;13431;51.352;6.412;2023-02-10T06:13:59;64.03;;;43.22;;
25535;SDS011;13431;51.352;6.412;2023-02-10T06:16:27;63.65;;;39.97;;
25535;SDS011;13431;51.352;6.412;2023-02-10T06:18:55;61.33;;;40.33;;
25535;SDS011;13431;51.352;6.412;2023-02-10T06:21:22;67.35;;;40.65;;
25535;SDS011;13431;51.352;6.412;2023-02-10T06:23:50;61.63;;;40.38;;
25535;SDS011;13431;51.352;6.412;2023-02-10T06:26:17;62.80;;;39.85;;
25535;SDS011;13431;51.352;6.412;2023-02-10T06:28:45;64.10;;;42.17;;
25535;SDS011;13431;51.352;6.412;2023-02-10T06:31:12;64.53;;;41.05;;
25535;SDS011;13431;51.352;6.412;2023-02-10T06:33:39;60.75;;;40.75;;
25535;SDS011;13431;51.352;6.412;2023-02-10T06:36:07;59.42;;;40.85;;
25535;SDS011;13431;51.352;6.412;2023-02-10T06:38:35;63.22;;;41.88;;
25535;SDS011;13431;51.352;6.412;2023-02-10T06:41:04;63.20;;;42.08;;
25535;SDS011;13431;51.352;6.412;2023-02-10T06:43:32;62.20;;;41.28;;
25535;SDS011;13431;51.352;6.412;2023-02-10T06:46:00;61.55;;;41.70;;
25535;SDS011;13431;51.352;6.412;2023-02-10T06:48:28;63.00;;;42.00;;
25535;SDS011;13431;51.352;6.412;2023-02-10T06:50:55;66.07;;;43.08;;
25535;SDS011;13431;51.352;6.412;2023-02-10T06:53:23;67.47;;;43.97;;
25535;SDS011;13431;51.352;6.412;2023-02-10T06:55:50;69.15;;;43.88;;
25535;SDS011;13431;51.352;6.412;2023-02-10T06:58:17;67.32;;;44.28;;
25535;SDS011;13431;51.352;6.412;2023-02-10T07:00:45;71.90;;;44.03;;
25535;SDS011;13431;51.352;6.412;2023-02-10T07:03:13;69.10;;;43.05;;
25535;SDS011;13431;51.352;6.412;2023-02-10T07:05:41;73.65;;;46.70;;
25535;SDS011;13431;51.352;6.412;2023-02-10T07:08:08;75.05;;;48.35;;
25535;SDS011;13431;51.352;6.412;2023-02-10T07:10:36;69.20;;;46.05;;
25535;SDS011;13431;51.352;6.412;2023-02-10T07:13:03;70.40;;;44.40;;
25535;SDS011;13431;51.352;6.412;2023-02-10T07:15:30;64.45;;;44.33;;
25535;SDS011;13431;51.352;6.412;2023-02-10T07:17:58;67.70;;;45.08;;
25535;SDS011;13431;51.352;6.412;2023-02-10T07:20:25;65.80;;;44.28;;
25535;SDS011;13431;51.352;6.412;2023-02-10T07:22:53;67.03;;;44.38;;
25535;SDS011;13431;51.352;6.412;2023-02-10T07:25:20;64.35;;;44.90;;
25535;SDS011;13431;51.352;6.412;2023-02-10T07:27:47;63.83;;;44.30;;
25535;SDS011;13431;51.352;6.412;2023-02-10T07:30:15;65.90;;;44.78;;
25535;SDS011;13431;51.352;6.412;2023-02-10T07:32:43;66.53;;;45.13;;
25535;SDS011;13431;51.352;6.412;2023-02-10T07:35:11;65.18;;;44.65;;
25535;SDS011;13431;51.352;6.412;2023-02-10T07:37:38;63.35;;;42.22;;
25535;SDS011;13431;51.352;6.412;2023-02-10T07:40:06;66.90;;;44.55;;
25535;SDS011;13431;51.352;6.412;2023-02-10T07:42:34;65.82;;;43.08;;
25535;SDS011;13431;51.352;6.412;2023-02-10T07:45:38;67.22;;;41.53;;
25535;SDS011;13431;51.352;6.412;2023-02-10T07:48:05;61.97;;;41.67;;
25535;SDS011;13431;51.352;6.412;2023-02-10T07:50:32;60.35;;;42.45;;
25535;SDS011;13431;51.352;6.412;2023-02-10T07:53:00;65.38;;;43.03;;
25535;SDS011;13431;51.352;6.412;2023-02-10T07:55:27;60.85;;;41.50;;
25535;SDS011;13431;51.352;6.412;2023-02-10T07:57:55;63.20;;;43.40;;
25535;SDS011;13431;51.352;6.412;2023-02-10T08:00:22;67.05;;;44.42;;
25535;SDS011;13431;51.352;6.412;2023-02-10T08:02:49;59.45;;;42.58;;
25535;SDS011;13431;51.352;6.412;2023-02-10T08:05:17;64.93;;;43.20;;
25535;SDS011;13431;51.352;6.412;2023-02-10T08:07:44;65.82;;;44.40;;
25535;SDS011;13431;51.352;6.412;2023-02-10T08:10:11;65.90;;;46.17;;
25535;SDS011;13431;51.352;6.412;2023-02-10T08:12:39;70.07;;;44.97;;
25535;SDS011;13431;51.352;6.412;2023-02-10T08:15:07;66.82;;;45.95;;
25535;SDS011;13431;51.352;6.412;2023-02-10T08:17:34;70.03;;;45.83;;
25535;SDS011;13431;51.352;6.412;2023-02-10T08:20:04;72.65;;;44.22;;
25535;SDS011;13431;51.352;6.412;2023-02-10T08:22:32;79.15;;;45.88;;
25535;SDS011;13431;51.352;6.412;2023-02-10T08:25:01;80.88;;;46.42;;
25535;SDS011;13431;51.352;6.412;2023-02-10T08:27:28;82.18;;;45.75;;
25535;SDS011;13431;51.352;6.412;2023-02-10T08:29:56;75.05;;;47.28;;
25535;SDS011;13431;51.352;6.412;2023-02-10T08:32:23;72.63;;;42.80;;
25535;SDS011;13431;51.352;6.412;2023-02-10T08:34:51;68.20;;;44.80;;
25535;SDS011;13431;51.352;6.412;2023-02-10T08:37:19;65.88;;;42.90;;
25535;SDS011;13431;51.352;6.412;2023-02-10T08:39:48;72.05;;;44.80;;
25535;SDS011;13431;51.352;6.412;2023-02-10T08:42:15;63.78;;;43.13;;
25535;SDS011;13431;51.352;6.412;2023-02-10T08:44:42;63.33;;;41.25;;
25535;SDS011;13431;51.352;6.412;2023-02-10T08:47:10;56.95;;;38.33;;
25535;SDS011;13431;51.352;6.412;2023-02-10T08:49:41;51.10;;;36.38;;
25535;SDS011;13431;51.352;6.412;2023-02-10T08:52:09;48.72;;;36.28;;
25535;SDS011;13431;51.352;6.412;2023-02-10T08:54:36;47.63;;;34.42;;
25535;SDS011;13431;51.352;6.412;2023-02-10T08:57:04;50.28;;;35.47;;
25535;SDS011;13431;51.352;6.412;2023-02-10T08:59:31;45.70;;;33.50;;
25535;SDS011;13431;51.352;6.412;2023-02-10T09:01:58;42.88;;;33.88;;
25535;SDS011;13431;51.352;6.412;2023-02-10T09:04:26;48.60;;;34.05;;
25535;SDS011;13431;51.352;6.412;2023-02-10T09:06:54;42.65;;;33.72;;
25535;SDS011;13431;51.352;6.412;2023-02-10T09:09:22;42.67;;;32.05;;
25535;SDS011;13431;51.352;6.412;2023-02-10T09:11:51;44.40;;;33.47;;
25535;SDS011;13431;51.352;6.412;2023-02-10T09:14:20;41.28;;;32.33;;
25535;SDS011;13431;51.352;6.412;2023-02-10T09:16:49;46.65;;;33.63;;
25535;SDS011;13431;51.352;6.412;2023-02-10T09:19:18;41.58;;;32.58;;
25535;SDS011;13431;51.352;6.412;2023-02-10T09:21:47;41.47;;;32.92;;
25535;SDS011;13431;51.352;6.412;2023-02-10T09:24:15;40.08;;;31.40;;
25535;SDS011;13431;51.352;6.412;2023-02-10T09:26:43;38.17;;;32.03;;
25535;SDS011;13431;51.352;6.412;2023-02-10T09:29:11;38.38;;;30.05;;
25535;SDS011;13431;51.352;6.412;2023-02-10T09:31:39;35.50;;;30.42;;
25535;SDS011;13431;51.352;6.412;2023-02-10T09:34:07;37.50;;;28.95;;
25535;SDS011;13431;51.352;6.412;2023-02-10T09:36:34;35.22;;;29.13;;
25535;SDS011;13431;51.352;6.412;2023-02-10T09:39:02;34.38;;;27.67;;
25535;SDS011;13431;51.352;6.412;2023-02-10T09:46:52;36.88;;;29.33;;
25535;SDS011;13431;51.352;6.412;2023-02-10T09:54:49;33.15;;;27.17;;
25535;SDS011;13431;51.352;6.412;2023-02-10T09:57:21;33.95;;;26.67;;
25535;SDS011;13431;51.352;6.412;2023-02-10T09:59:57;31.13;;;26.83;;
25535;SDS011;13431;51.352;6.412;2023-02-10T10:02:33;31.40;;;25.30;;
25535;SDS011;13431;51.352;6.412;2023-02-10T10:05:16;31.75;;;26.73;;
25535;SDS011;13431;51.352;6.412;2023-02-10T10:07:55;30.25;;;25.30;;
25535;SDS011;13431;51.352;6.412;2023-02-10T10:10:24;31.63;;;27.70;;
25535;SDS011;13431;51.352;6.412;2023-02-10T10:12:58;32.15;;;26.35;;
25535;SDS011;13431;51.352;6.412;2023-02-10T10:15:28;31.27;;;26.95;;
25535;SDS011;13431;51.352;6.412;2023-02-10T10:18:25;34.28;;;28.15;;
25535;SDS011;13431;51.352;6.412;2023-02-10T10:21:22;37.42;;;27.15;;
25535;SDS011;13431;51.352;6.412;2023-02-10T10:24:07;35.92;;;28.27;;
25535;SDS011;13431;51.352;6.412;2023-02-10T10:27:04;39.22;;;28.77;;
25535;SDS011;13431;51.352;6.412;2023-02-10T10:29:56;34.00;;;27.70;;
25535;SDS011;13431;51.352;6.412;2023-02-10T10:32:39;35.72;;;28.58;;
25535;SDS011;13431;51.352;6.412;2023-02-10T10:35:18;34.72;;;29.67;;
25535;SDS011;13431;51.352;6.412;2023-02-10T10:37:48;38.45;;;30.00;;
25535;SDS011;13431;51.352;6.412;2023-02-10T10:40:20;36.33;;;30.88;;
25535;SDS011;13431;51.352;6.412;2023-02-10T10:42:58;38.42;;;29.83;;
25535;SDS011;13431;51.352;6.412;2023-02-10T10:45:40;39.38;;;30.23;;
25535;SDS011;13431;51.352;6.412;2023-02-10T10:48:14;36.08;;;26.75;;
25535;SDS011;13431;51.352;6.412;2023-02-10T10:50:44;35.22;;;28.15;;
25535;SDS011;13431;51.352;6.412;2023-02-10T10:53:14;35.17;;;28.85;;
25535;SDS011;13431;51.352;6.412;2023-02-10T10:55:51;37.25;;;29.77;;
25535;SDS011;13431;51.352;6.412;2023-02-10T10:58:23;36.50;;;27.98;;
25535;SDS011;13431;51.352;6.412;2023-02-10T11:00:56;33.85;;;28.10;;
25535;SDS011;13431;51.352;6.412;2023-02-10T11:03:25;33.47;;;28.05;;
25535;SDS011;13431;51.352;6.412;2023-02-10T11:06:04;37.55;;;28.77;;
25535;SDS011;13431;51.352;6.412;2023-02-10T11:08:40;36.63;;;29.38;;
25535;SDS011;13431;51.352;6.412;2023-02-10T11:11:12;33.45;;;28.27;;
25535;SDS011;13431;51.352;6.412;2023-02-10T11:14:01;41.85;;;29.75;;
25535;SDS011;13431;51.352;6.412;2023-02-10T11:16:29;35.65;;;29.20;;
25535;SDS011;13431;51.352;6.412;2023-02-10T11:19:10;36.35;;;28.88;;
25535;SDS011;13431;51.352;6.412;2023-02-10T11:21:48;37.45;;;29.00;;
25535;SDS011;13431;51.352;6.412;2023-02-10T11:24:18;38.00;;;27.80;;
25535;SDS011;13431;51.352;6.412;2023-02-10T11:26:53;38.13;;;27.95;;
25535;SDS011;13431;51.352;6.412;2023-02-10T11:29:24;37.63;;;29.48;;
25535;SDS011;13431;51.352;6.412;2023-02-10T11:31:52;41.72;;;29.38;;
25535;SDS011;13431;51.352;6.412;2023-02-10T11:36:53;41.83;;;28.83;;
25535;SDS011;13431;51.352;6.412;2023-02-10T11:39:23;45.55;;;29.92;;
25535;SDS011;13431;51.352;6.412;2023-02-10T11:42:07;34.67;;;25.92;;
25535;SDS011;13431;51.352;6.412;2023-02-10T11:44:37;35.38;;;26.23;;
25535;SDS011;13431;51.352;6.412;2023-02-10T11:47:15;33.83;;;25.92;;
25535;SDS011;13431;51.352;6.412;2023-02-10T11:49:43;33.17;;;24.15;;
25535;SDS011;13431;51.352;6.412;2023-02-10T11:52:12;38.28;;;25.35;;
25535;SDS011;13431;51.352;6.412;2023-02-10T11:54:41;37.60;;;27.10;;
25535;SDS011;13431;51.352;6.412;2023-02-10T11:57:21;36.88;;;24.40;;
25535;SDS011;13431;51.352;6.412;2023-02-10T12:00:32;35.65;;;23.55;;
25535;SDS011;13431;51.352;6.412;2023-02-10T12:09:14;27.40;;;20.63;;
25535;SDS011;13431;51.352;6.412;2023-02-10T12:17:27;27.85;;;18.60;;
25535;SDS011;13431;51.352;6.412;2023-02-10T12:30:54;26.42;;;16.95;;
25535;SDS011;13431;51.352;6.412;2023-02-10T12:52:53;32.83;;;20.80;;
25535;SDS011;13431;51.352;6.412;2023-02-10T12:55:27;27.65;;;19.65;;
25535;SDS011;13431;51.352;6.412;2023-02-10T12:58:19;27.67;;;19.70;;
25535;SDS011;13431;51.352;6.412;2023-02-10T13:00:53;28.08;;;19.55;;
25535;SDS011;13431;51.352;6.412;2023-02-10T13:03:26;27.47;;;19.13;;
25535;SDS011;13431;51.352;6.412;2023-02-10T13:08:53;25.83;;;19.50;;
25535;SDS011;13431;51.352;6.412;2023-02-10T13:11:47;26.85;;;20.08;;
25535;SDS011;13431;51.352;6.412;2023-02-10T13:14:22;28.67;;;19.10;;
25535;SDS011;13431;51.352;6.412;2023-02-10T13:16:55;24.60;;;18.95;;
25535;SDS011;13431;51.352;6.412;2023-02-10T13:36:09;18.73;;;14.30;;
25535;SDS011;13431;51.352;6.412;2023-02-10T13:38:40;21.65;;;15.82;;
25535;SDS011;13431;51.352;6.412;2023-02-10T13:41:22;19.73;;;16.27;;
25535;SDS011;13431;51.352;6.412;2023-02-10T13:44:18;24.75;;;18.75;;
25535;SDS011;13431;51.352;6.412;2023-02-10T13:49:56;25.70;;;19.33;;
25535;SDS011;13431;51.352;6.412;2023-02-10T13:52:30;22.38;;;18.48;;
25535;SDS011;13431;51.352;6.412;2023-02-10T13:55:05;25.35;;;20.35;;
25535;SDS011;13431;51.352;6.412;2023-02-10T14:00:26;26.30;;;19.35;;
25535;SDS011;13431;51.352;6.412;2023-02-10T14:05:49;27.13;;;20.08;;
25535;SDS011;13431;51.352;6.412;2023-02-10T14:11:06;23.90;;;19.40;;
25535;SDS011;13431;51.352;6.412;2023-02-10T14:19:41;23.67;;;19.30;;
25535;SDS011;13431;51.352;6.412;2023-02-10T14:22:27;27.35;;;18.60;;
25535;SDS011;13431;51.352;6.412;2023-02-10T14:27:41;23.13;;;18.48;;
25535;SDS011;13431;51.352;6.412;2023-02-10T14:30:20;23.67;;;18.17;;
25535;SDS011;13431;51.352;6.412;2023-02-10T14:32:51;22.20;;;17.00;;
25535;SDS011;13431;51.352;6.412;2023-02-10T14:35:20;22.05;;;17.58;;
25535;SDS011;13431;51.352;6.412;2023-02-10T14:37:55;19.85;;;16.73;;
25535;SDS011;13431;51.352;6.412;2023-02-10T14:40:25;18.25;;;16.35;;
25535;SDS011;13431;51.352;6.412;2023-02-10T14:42:56;18.67;;;15.27;;
25535;SDS011;13431;51.352;6.412;2023-02-10T14:45:26;17.75;;;15.60;;
25535;SDS011;13431;51.352;6.412;2023-02-10T14:47:55;18.35;;;15.45;;
25535;SDS011;13431;51.352;6.412;2023-02-10T14:52:53;21.08;;;15.10;;
25535;SDS011;13431;51.352;6.412;2023-02-10T14:58:04;18.05;;;15.90;;
25535;SDS011;13431;51.352;6.412;2023-02-10T15:00:56;17.85;;;15.32;;
25535;SDS011;13431;51.352;6.412;2023-02-10T15:03:24;18.45;;;16.50;;
25535;SDS011;13431;51.352;6.412;2023-02-10T15:05:53;21.42;;;17.33;;
25535;SDS011;13431;51.352;6.412;2023-02-10T15:11:04;19.30;;;17.00;;
25535;SDS011;13431;51.352;6.412;2023-02-10T15:13:45;20.90;;;15.70;;
25535;SDS011;13431;51.352;6.412;2023-02-10T15:16:15;16.90;;;14.90;;
25535;SDS011;13431;51.352;6.412;2023-02-10T15:18:45;20.92;;;14.73;;
25535;SDS011;13431;51.352;6.412;2023-02-10T15:21:49;19.05;;;14.88;;
25535;SDS011;13431;51.352;6.412;2023-02-10T15:24:19;20.95;;;15.50;;
25535;SDS011;13431;51.352;6.412;2023-02-10T15:30:04;20.38;;;15.13;;
25535;SDS011;13431;51.352;6.412;2023-02-10T15:32:33;18.33;;;15.00;;
25535;SDS011;13431;51.352;6.412;2023-02-10T15:35:06;17.75;;;14.45;;
25535;SDS011;13431;51.352;6.412;2023-02-10T15:37:34;19.87;;;15.30;;
25535;SDS011;13431;51.352;6.412;2023-02-10T15:40:15;21.55;;;16.75;;
25535;SDS011;13431;51.352;6.412;2023-02-10T15:45:24;21.25;;;17.58;;
25535;SDS011;13431;51.352;6.412;2023-02-10T15:47:58;19.90;;;15.98;;
25535;SDS011;13431;51.352;6.412;2023-02-10T15:50:31;19.40;;;15.43;;
25535;SDS011;13431;51.352;6.412;2023-02-10T15:53:00;24.13;;;16.30;;
25535;SDS011;13431;51.352;6.412;2023-02-10T15:55:29;16.88;;;15.07;;
25535;SDS011;13431;51.352;6.412;2023-02-10T15:58:02;18.50;;;16.48;;
25535;SDS011;13431;51.352;6.412;2023-02-10T16:00:31;18.42;;;15.52;;
25535;SDS011;13431;51.352;6.412;2023-02-10T16:03:00;20.35;;;16.85;;
25535;SDS011;13431;51.352;6.412;2023-02-10T16:05:29;19.92;;;16.08;;
25535;SDS011;13431;51.352;6.412;2023-02-10T16:08:00;21.92;;;15.68;;
25535;SDS011;13431;51.352;6.412;2023-02-10T16:10:30;20.35;;;17.10;;
25535;SDS011;13431;51.352;6.412;2023-02-10T16:12:58;21.52;;;16.58;;
25535;SDS011;13431;51.352;6.412;2023-02-10T16:15:26;18.90;;;15.68;;
25535;SDS011;13431;51.352;6.412;2023-02-10T16:17:55;22.60;;;17.80;;
25535;SDS011;13431;51.352;6.412;2023-02-10T16:20:25;23.90;;;17.98;;
25535;SDS011;13431;51.352;6.412;2023-02-10T16:22:55;19.95;;;16.23;;
25535;SDS011;13431;51.352;6.412;2023-02-10T16:25:25;21.48;;;16.42;;
25535;SDS011;13431;51.352;6.412;2023-02-10T16:27:53;22.95;;;18.33;;
25535;SDS011;13431;51.352;6.412;2023-02-10T16:30:25;21.13;;;17.60;;
25535;SDS011;13431;51.352;6.412;2023-02-10T16:32:54;23.17;;;18.08;;
25535;SDS011;13431;51.352;6.412;2023-02-10T16:35:22;22.15;;;18.13;;
25535;SDS011;13431;51.352;6.412;2023-02-10T16:37:51;24.30;;;18.98;;
25535;SDS011;13431;51.352;6.412;2023-02-10T16:42:51;26.40;;;19.10;;
25535;SDS011;13431;51.352;6.412;2023-02-10T16:45:20;25.58;;;18.73;;
25535;SDS011;13431;51.352;6.412;2023-02-10T16:47:48;21.20;;;17.33;;
25535;SDS011;13431;51.352;6.412;2023-02-10T16:50:36;30.55;;;19.38;;
25535;SDS011;13431;51.352;6.412;2023-02-10T16:53:05;24.08;;;18.23;;
25535;SDS011;13431;51.352;6.412;2023-02-10T16:55:35;24.02;;;18.88;;
25535;SDS011;13431;51.352;6.412;2023-02-10T16:58:04;26.70;;;19.17;;
25535;SDS011;13431;51.352;6.412;2023-02-10T17:00:32;22.52;;;18.00;;
25535;SDS011;13431;51.352;6.412;2023-02-10T17:03:00;23.05;;;18.45;;
25535;SDS011;13431;51.352;6.412;2023-02-10T17:05:27;23.02;;;19.70;;
25535;SDS011;13431;51.352;6.412;2023-02-10T17:07:56;23.08;;;20.13;;